sensor_id;sensor_type;location;lat;lon;timestamp;P1;P2;P0
72854;PMS7003;60991;51.278;22.550;2023-08-24T00:00:45;20.50;17.50;11.50
72854;PMS7003;60991;51.278;22.550;2023-08-24T00:02:15;18.50;17.00;12.00
72854;PMS7003;60991;51.278;22.550;2023-08-24T00:03:45;11.00;10.50;8.25
72854;PMS7003;60991;51.278;22.550;2023-08-24T00:05:16;21.00;16.75;11.50
72854;PMS7003;60991;51.278;22.550;2023-08-24T00:06:46;19.25;18.25;12.25
72854;PMS7003;60991;51.278;22.550;2023-08-24T00:08:16;17.00;16.75;11.50
72854;PMS7003;60991;51.278;22.550;2023-08-24T00:09:47;22.50;17.50;11.00
72854;PMS7003;60991;51.278;22.550;2023-08-24T00:11:17;16.75;16.50;11.00
72854;PMS7003;60991;51.278;22.550;2023-08-24T00:12:47;18.25;18.00;11.25
72854;PMS7003;60991;51.278;22.550;2023-08-24T00:14:17;20.75;18.25;11.50
72854;PMS7003;60991;51.278;22.550;2023-08-24T00:15:47;17.25;17.25;12.00
72854;PMS7003;60991;51.278;22.550;2023-08-24T00:17:18;14.50;14.50;9.75
72854;PMS7003;60991;51.278;22.550;2023-08-24T00:18:48;14.50;14.50;9.75
72854;PMS7003;60991;51.278;22.550;2023-08-24T00:20:18;14.25;14.25;9.25
72854;PMS7003;60991;51.278;22.550;2023-08-24T00:21:48;17.50;16.25;10.00
72854;PMS7003;60991;51.278;22.550;2023-08-24T00:23:19;15.75;13.75;10.50
72854;PMS7003;60991;51.278;22.550;2023-08-24T00:24:49;16.50;15.50;11.00
72854;PMS7003;60991;51.278;22.550;2023-08-24T00:26:19;16.25;15.25;11.00
72854;PMS7003;60991;51.278;22.550;2023-08-24T00:27:49;18.50;15.50;11.00
72854;PMS7003;60991;51.278;22.550;2023-08-24T00:29:19;17.75;17.25;10.25
72854;PMS7003;60991;51.278;22.550;2023-08-24T00:30:50;14.00;13.00;9.00
72854;PMS7003;60991;51.278;22.550;2023-08-24T00:32:21;13.25;12.00;9.00
72854;PMS7003;60991;51.278;22.550;2023-08-24T00:33:52;13.75;13.75;9.75
72854;PMS7003;60991;51.278;22.550;2023-08-24T00:35:22;16.00;15.00;9.50
72854;PMS7003;60991;51.278;22.550;2023-08-24T00:36:53;12.75;12.75;9.00
72854;PMS7003;60991;51.278;22.550;2023-08-24T00:38:23;18.00;16.00;10.75
72854;PMS7003;60991;51.278;22.550;2023-08-24T00:39:53;16.25;14.00;9.50
72854;PMS7003;60991;51.278;22.550;2023-08-24T00:41:23;11.50;10.25;7.50
72854;PMS7003;60991;51.278;22.550;2023-08-24T00:42:53;15.50;14.50;10.50
72854;PMS7003;60991;51.278;22.550;2023-08-24T00:44:24;10.75;10.75;5.75
72854;PMS7003;60991;51.278;22.550;2023-08-24T00:45:59;18.25;16.50;10.75
72854;PMS7003;60991;51.278;22.550;2023-08-24T00:47:30;15.25;13.75;9.75
72854;PMS7003;60991;51.278;22.550;2023-08-24T00:49:01;19.00;18.00;11.00
72854;PMS7003;60991;51.278;22.550;2023-08-24T00:50:32;21.00;16.25;11.00
72854;PMS7003;60991;51.278;22.550;2023-08-24T00:52:02;20.50;15.00;10.25
72854;PMS7003;60991;51.278;22.550;2023-08-24T00:53:33;14.75;14.50;10.50
72854;PMS7003;60991;51.278;22.550;2023-08-24T00:55:05;16.00;13.50;9.25
72854;PMS7003;60991;51.278;22.550;2023-08-24T00:56:36;17.75;17.00;10.75
72854;PMS7003;60991;51.278;22.550;2023-08-24T00:58:06;18.50;14.50;11.00
72854;PMS7003;60991;51.278;22.550;2023-08-24T00:59:37;20.25;19.00;13.75
72854;PMS7003;60991;51.278;22.550;2023-08-24T01:01:08;18.00;17.00;11.50
72854;PMS7003;60991;51.278;22.550;2023-08-24T01:02:38;18.50;17.50;11.00
72854;PMS7003;60991;51.278;22.550;2023-08-24T01:04:09;16.50;14.75;11.25
72854;PMS7003;60991;51.278;22.550;2023-08-24T01:05:39;18.50;16.50;12.75
72854;PMS7003;60991;51.278;22.550;2023-08-24T01:07:10;20.25;17.75;12.50
72854;PMS7003;60991;51.278;22.550;2023-08-24T01:08:40;19.50;17.50;12.50
72854;PMS7003;60991;51.278;22.550;2023-08-24T01:10:11;18.00;16.50;11.00
72854;PMS7003;60991;51.278;22.550;2023-08-24T01:14:06;18.75;17.00;13.25
72854;PMS7003;60991;51.278;22.550;2023-08-24T01:15:48;17.50;15.25;11.00
72854;PMS7003;60991;51.278;22.550;2023-08-24T01:17:26;15.50;14.75;11.25
72854;PMS7003;60991;51.278;22.550;2023-08-24T01:18:58;17.00;14.50;9.50
72854;PMS7003;60991;51.278;22.550;2023-08-24T01:20:30;14.50;14.00;10.00
72854;PMS7003;60991;51.278;22.550;2023-08-24T01:22:01;16.00;12.50;8.75
72854;PMS7003;60991;51.278;22.550;2023-08-24T01:23:43;13.00;12.75;9.25
72854;PMS7003;60991;51.278;22.550;2023-08-24T01:27:04;15.75;14.25;8.25
72854;PMS7003;60991;51.278;22.550;2023-08-24T01:28:35;13.25;12.00;7.00
72854;PMS7003;60991;51.278;22.550;2023-08-24T01:30:06;15.00;13.75;9.00
72854;PMS7003;60991;51.278;22.550;2023-08-24T01:31:38;12.50;11.75;8.75
72854;PMS7003;60991;51.278;22.550;2023-08-24T01:33:09;11.25;11.00;8.25
72854;PMS7003;60991;51.278;22.550;2023-08-24T01:34:39;13.50;13.00;9.50
72854;PMS7003;60991;51.278;22.550;2023-08-24T01:36:09;12.50;12.00;8.50
72854;PMS7003;60991;51.278;22.550;2023-08-24T01:37:41;15.00;13.00;8.50
72854;PMS7003;60991;51.278;22.550;2023-08-24T01:39:18;13.50;13.50;9.75
72854;PMS7003;60991;51.278;22.550;2023-08-24T01:42:56;14.75;13.00;8.75
72854;PMS7003;60991;51.278;22.550;2023-08-24T01:44:29;12.75;11.25;7.00
72854;PMS7003;60991;51.278;22.550;2023-08-24T01:46:05;13.00;13.00;8.00
72854;PMS7003;60991;51.278;22.550;2023-08-24T01:47:37;14.00;12.00;8.50
72854;PMS7003;60991;51.278;22.550;2023-08-24T01:49:11;15.50;14.50;9.75
72854;PMS7003;60991;51.278;22.550;2023-08-24T01:50:43;12.00;11.50;8.00
72854;PMS7003;60991;51.278;22.550;2023-08-24T01:52:14;8.25;8.25;4.00
72854;PMS7003;60991;51.278;22.550;2023-08-24T01:53:45;12.75;12.75;9.50
72854;PMS7003;60991;51.278;22.550;2023-08-24T01:55:18;13.00;12.50;8.25
72854;PMS7003;60991;51.278;22.550;2023-08-24T01:56:49;14.75;11.75;8.25
72854;PMS7003;60991;51.278;22.550;2023-08-24T01:58:20;11.50;10.00;7.50
72854;PMS7003;60991;51.278;22.550;2023-08-24T01:59:50;9.25;8.25;5.75
72854;PMS7003;60991;51.278;22.550;2023-08-24T02:01:20;14.00;11.25;8.25
72854;PMS7003;60991;51.278;22.550;2023-08-24T02:02:50;12.50;12.00;9.75
72854;PMS7003;60991;51.278;22.550;2023-08-24T02:04:21;11.75;11.25;8.25
72854;PMS7003;60991;51.278;22.550;2023-08-24T02:05:51;15.00;14.00;9.25
72854;PMS7003;60991;51.278;22.550;2023-08-24T02:07:21;12.75;12.50;8.00
72854;PMS7003;60991;51.278;22.550;2023-08-24T02:08:51;12.50;11.00;8.00
72854;PMS7003;60991;51.278;22.550;2023-08-24T02:10:21;15.50;15.00;9.75
72854;PMS7003;60991;51.278;22.550;2023-08-24T02:11:52;17.00;15.50;11.25
72854;PMS7003;60991;51.278;22.550;2023-08-24T02:13:22;17.00;15.25;11.25
72854;PMS7003;60991;51.278;22.550;2023-08-24T02:14:52;16.00;15.50;10.75
72854;PMS7003;60991;51.278;22.550;2023-08-24T02:16:22;17.25;15.25;10.50
72854;PMS7003;60991;51.278;22.550;2023-08-24T02:17:52;18.00;15.75;10.00
72854;PMS7003;60991;51.278;22.550;2023-08-24T02:19:22;18.25;14.75;8.25
72854;PMS7003;60991;51.278;22.550;2023-08-24T02:20:53;16.75;16.75;11.50
72854;PMS7003;60991;51.278;22.550;2023-08-24T02:22:23;14.25;13.00;9.00
72854;PMS7003;60991;51.278;22.550;2023-08-24T02:23:53;14.50;14.00;9.25
72854;PMS7003;60991;51.278;22.550;2023-08-24T02:25:23;12.25;12.25;8.50
72854;PMS7003;60991;51.278;22.550;2023-08-24T02:26:53;18.50;17.50;11.50
72854;PMS7003;60991;51.278;22.550;2023-08-24T02:28:24;18.75;14.00;11.00
72854;PMS7003;60991;51.278;22.550;2023-08-24T02:29:54;17.25;16.75;12.50
72854;PMS7003;60991;51.278;22.550;2023-08-24T02:31:24;23.50;20.75;11.25
72854;PMS7003;60991;51.278;22.550;2023-08-24T02:32:54;14.75;11.25;4.75
72854;PMS7003;60991;51.278;22.550;2023-08-24T02:34:25;17.25;13.50;9.75
72854;PMS7003;60991;51.278;22.550;2023-08-24T02:35:55;21.25;18.25;13.25
72854;PMS7003;60991;51.278;22.550;2023-08-24T02:37:25;14.50;13.00;8.75
72854;PMS7003;60991;51.278;22.550;2023-08-24T02:38:55;22.50;19.75;12.00
72854;PMS7003;60991;51.278;22.550;2023-08-24T02:40:25;20.75;17.75;12.50
72854;PMS7003;60991;51.278;22.550;2023-08-24T02:41:56;23.00;21.25;11.25
72854;PMS7003;60991;51.278;22.550;2023-08-24T02:43:26;20.25;18.00;12.75
72854;PMS7003;60991;51.278;22.550;2023-08-24T02:44:56;17.50;17.50;11.25
72854;PMS7003;60991;51.278;22.550;2023-08-24T02:46:26;20.00;18.25;13.50
72854;PMS7003;60991;51.278;22.550;2023-08-24T02:47:57;19.25;17.75;13.25
72854;PMS7003;60991;51.278;22.550;2023-08-24T02:49:27;20.50;19.50;14.25
72854;PMS7003;60991;51.278;22.550;2023-08-24T02:50:57;15.25;15.25;11.50
72854;PMS7003;60991;51.278;22.550;2023-08-24T02:52:28;14.50;12.25;11.50
72854;PMS7003;60991;51.278;22.550;2023-08-24T02:53:58;22.25;20.00;12.00
72854;PMS7003;60991;51.278;22.550;2023-08-24T02:55:31;18.75;16.50;12.50
72854;PMS7003;60991;51.278;22.550;2023-08-24T02:57:02;22.75;20.00;12.25
72854;PMS7003;60991;51.278;22.550;2023-08-24T02:58:32;17.50;16.50;11.75
72854;PMS7003;60991;51.278;22.550;2023-08-24T03:00:03;17.25;16.00;11.75
72854;PMS7003;60991;51.278;22.550;2023-08-24T03:01:33;16.50;15.25;10.50
72854;PMS7003;60991;51.278;22.550;2023-08-24T03:03:04;18.75;16.25;11.75
72854;PMS7003;60991;51.278;22.550;2023-08-24T03:04:34;22.00;22.00;12.50
72854;PMS7003;60991;51.278;22.550;2023-08-24T03:06:05;15.00;15.00;10.25
72854;PMS7003;60991;51.278;22.550;2023-08-24T03:07:36;18.25;15.75;11.00
72854;PMS7003;60991;51.278;22.550;2023-08-24T03:09:06;20.75;17.50;11.25
72854;PMS7003;60991;51.278;22.550;2023-08-24T03:10:36;16.25;14.50;11.50
72854;PMS7003;60991;51.278;22.550;2023-08-24T03:12:07;17.00;14.50;10.25
72854;PMS7003;60991;51.278;22.550;2023-08-24T03:13:37;19.75;15.75;10.25
72854;PMS7003;60991;51.278;22.550;2023-08-24T03:15:07;20.50;18.00;10.50
72854;PMS7003;60991;51.278;22.550;2023-08-24T03:16:38;18.75;17.50;10.00
72854;PMS7003;60991;51.278;22.550;2023-08-24T03:18:10;16.00;14.75;10.00
72854;PMS7003;60991;51.278;22.550;2023-08-24T03:19:42;23.00;19.50;12.50
72854;PMS7003;60991;51.278;22.550;2023-08-24T03:21:12;15.50;13.50;10.25
72854;PMS7003;60991;51.278;22.550;2023-08-24T03:22:42;17.25;17.25;11.50
72854;PMS7003;60991;51.278;22.550;2023-08-24T03:24:12;19.00;13.50;9.75
72854;PMS7003;60991;51.278;22.550;2023-08-24T03:25:43;14.75;14.25;9.75
72854;PMS7003;60991;51.278;22.550;2023-08-24T03:27:13;15.50;15.00;9.50
72854;PMS7003;60991;51.278;22.550;2023-08-24T03:28:44;17.00;14.50;11.25
72854;PMS7003;60991;51.278;22.550;2023-08-24T03:30:14;15.00;14.25;10.00
72854;PMS7003;60991;51.278;22.550;2023-08-24T03:31:44;16.75;16.75;11.50
72854;PMS7003;60991;51.278;22.550;2023-08-24T03:33:15;16.75;13.75;10.75
72854;PMS7003;60991;51.278;22.550;2023-08-24T03:34:46;14.50;14.00;10.25
72854;PMS7003;60991;51.278;22.550;2023-08-24T03:36:16;16.25;15.25;10.50
72854;PMS7003;60991;51.278;22.550;2023-08-24T03:37:46;17.50;16.25;10.50
72854;PMS7003;60991;51.278;22.550;2023-08-24T03:39:16;15.25;15.00;11.00
72854;PMS7003;60991;51.278;22.550;2023-08-24T03:40:46;19.50;17.50;10.75
72854;PMS7003;60991;51.278;22.550;2023-08-24T03:42:17;16.75;16.50;11.25
72854;PMS7003;60991;51.278;22.550;2023-08-24T03:43:47;17.25;15.25;9.75
72854;PMS7003;60991;51.278;22.550;2023-08-24T03:45:17;16.25;13.50;9.50
72854;PMS7003;60991;51.278;22.550;2023-08-24T03:46:47;17.50;14.75;10.50
72854;PMS7003;60991;51.278;22.550;2023-08-24T03:48:17;17.75;16.50;11.25
72854;PMS7003;60991;51.278;22.550;2023-08-24T03:49:48;16.50;16.50;11.25
72854;PMS7003;60991;51.278;22.550;2023-08-24T03:51:18;13.50;13.50;8.75
72854;PMS7003;60991;51.278;22.550;2023-08-24T03:52:49;12.00;11.00;9.00
72854;PMS7003;60991;51.278;22.550;2023-08-24T03:54:20;16.00;14.00;8.50
72854;PMS7003;60991;51.278;22.550;2023-08-24T03:55:50;12.50;10.75;9.00
72854;PMS7003;60991;51.278;22.550;2023-08-24T03:57:21;14.00;14.00;9.50
72854;PMS7003;60991;51.278;22.550;2023-08-24T03:58:52;14.00;13.50;10.00
72854;PMS7003;60991;51.278;22.550;2023-08-24T04:00:22;15.00;13.25;9.50
72854;PMS7003;60991;51.278;22.550;2023-08-24T04:01:52;12.50;12.50;10.25
72854;PMS7003;60991;51.278;22.550;2023-08-24T04:03:22;15.25;11.50;8.50
72854;PMS7003;60991;51.278;22.550;2023-08-24T04:04:52;15.00;14.00;9.75
72854;PMS7003;60991;51.278;22.550;2023-08-24T04:06:23;13.00;12.25;9.00
72854;PMS7003;60991;51.278;22.550;2023-08-24T04:07:53;9.50;7.25;4.75
72854;PMS7003;60991;51.278;22.550;2023-08-24T04:09:23;16.50;14.75;11.00
72854;PMS7003;60991;51.278;22.550;2023-08-24T04:10:53;14.00;14.00;8.75
72854;PMS7003;60991;51.278;22.550;2023-08-24T04:12:24;11.00;11.00;8.25
72854;PMS7003;60991;51.278;22.550;2023-08-24T04:13:54;12.25;12.25;8.50
72854;PMS7003;60991;51.278;22.550;2023-08-24T04:15:24;15.25;14.00;9.50
72854;PMS7003;60991;51.278;22.550;2023-08-24T04:16:54;13.50;12.50;8.75
72854;PMS7003;60991;51.278;22.550;2023-08-24T04:18:24;13.75;13.25;9.00
72854;PMS7003;60991;51.278;22.550;2023-08-24T04:19:55;11.25;10.75;7.50
72854;PMS7003;60991;51.278;22.550;2023-08-24T04:21:25;12.25;12.25;9.50
72854;PMS7003;60991;51.278;22.550;2023-08-24T04:22:55;16.00;13.75;7.50
72854;PMS7003;60991;51.278;22.550;2023-08-24T04:24:25;10.50;10.00;7.25
72854;PMS7003;60991;51.278;22.550;2023-08-24T04:25:55;12.75;11.50;8.75
72854;PMS7003;60991;51.278;22.550;2023-08-24T04:27:26;11.00;8.75;7.00
72854;PMS7003;60991;51.278;22.550;2023-08-24T04:28:56;10.50;9.25;7.00
72854;PMS7003;60991;51.278;22.550;2023-08-24T04:30:26;10.00;8.25;7.00
72854;PMS7003;60991;51.278;22.550;2023-08-24T04:31:56;12.25;11.75;7.50
72854;PMS7003;60991;51.278;22.550;2023-08-24T04:33:26;13.75;12.00;9.00
72854;PMS7003;60991;51.278;22.550;2023-08-24T04:34:57;12.25;11.00;8.50
72854;PMS7003;60991;51.278;22.550;2023-08-24T04:36:27;9.00;9.00;6.50
72854;PMS7003;60991;51.278;22.550;2023-08-24T04:37:57;7.25;7.25;5.50
72854;PMS7003;60991;51.278;22.550;2023-08-24T04:39:27;14.50;12.00;7.25
72854;PMS7003;60991;51.278;22.550;2023-08-24T04:40:58;11.00;11.00;8.00
72854;PMS7003;60991;51.278;22.550;2023-08-24T04:42:28;11.25;11.00;8.25
72854;PMS7003;60991;51.278;22.550;2023-08-24T04:43:58;14.50;11.75;7.75
72854;PMS7003;60991;51.278;22.550;2023-08-24T04:45:28;10.25;10.00;7.75
72854;PMS7003;60991;51.278;22.550;2023-08-24T04:46:58;9.75;9.00;7.50
72854;PMS7003;60991;51.278;22.550;2023-08-24T04:48:29;11.50;10.00;8.00
72854;PMS7003;60991;51.278;22.550;2023-08-24T04:49:59;10.50;8.75;7.75
72854;PMS7003;60991;51.278;22.550;2023-08-24T04:51:29;11.25;10.00;7.50
72854;PMS7003;60991;51.278;22.550;2023-08-24T04:52:59;13.25;12.00;8.25
72854;PMS7003;60991;51.278;22.550;2023-08-24T04:54:29;11.75;11.75;8.75
72854;PMS7003;60991;51.278;22.550;2023-08-24T04:56:00;9.50;9.50;7.25
72854;PMS7003;60991;51.278;22.550;2023-08-24T04:57:30;15.00;10.50;6.75
72854;PMS7003;60991;51.278;22.550;2023-08-24T04:59:00;14.25;13.50;9.00
72854;PMS7003;60991;51.278;22.550;2023-08-24T05:00:30;12.00;11.00;7.00
72854;PMS7003;60991;51.278;22.550;2023-08-24T05:02:01;9.25;9.25;5.75
72854;PMS7003;60991;51.278;22.550;2023-08-24T05:03:31;12.00;12.00;8.00
72854;PMS7003;60991;51.278;22.550;2023-08-24T05:05:01;11.25;10.50;8.50
72854;PMS7003;60991;51.278;22.550;2023-08-24T05:06:31;14.50;13.75;9.00
72854;PMS7003;60991;51.278;22.550;2023-08-24T05:08:02;15.00;13.25;8.75
72854;PMS7003;60991;51.278;22.550;2023-08-24T05:09:34;15.25;13.00;9.00
72854;PMS7003;60991;51.278;22.550;2023-08-24T05:11:17;12.75;12.75;8.00
72854;PMS7003;60991;51.278;22.550;2023-08-24T05:12:48;12.50;11.50;8.00
72854;PMS7003;60991;51.278;22.550;2023-08-24T05:14:19;10.25;9.25;5.75
72854;PMS7003;60991;51.278;22.550;2023-08-24T05:15:49;10.50;9.50;7.00
72854;PMS7003;60991;51.278;22.550;2023-08-24T05:17:19;12.25;10.00;7.50
72854;PMS7003;60991;51.278;22.550;2023-08-24T05:18:49;14.50;11.00;7.50
72854;PMS7003;60991;51.278;22.550;2023-08-24T05:20:23;11.75;11.50;8.00
72854;PMS7003;60991;51.278;22.550;2023-08-24T05:21:53;11.75;11.75;8.75
72854;PMS7003;60991;51.278;22.550;2023-08-24T05:23:23;10.50;10.50;8.00
72854;PMS7003;60991;51.278;22.550;2023-08-24T05:24:53;11.50;11.50;9.00
72854;PMS7003;60991;51.278;22.550;2023-08-24T05:26:24;10.00;8.50;6.75
72854;PMS7003;60991;51.278;22.550;2023-08-24T05:27:54;14.00;11.50;7.00
72854;PMS7003;60991;51.278;22.550;2023-08-24T05:29:24;9.50;8.50;7.25
72854;PMS7003;60991;51.278;22.550;2023-08-24T05:30:54;12.75;9.00;7.75
72854;PMS7003;60991;51.278;22.550;2023-08-24T05:32:25;9.00;8.75;6.75
72854;PMS7003;60991;51.278;22.550;2023-08-24T05:33:55;9.75;9.75;7.00
72854;PMS7003;60991;51.278;22.550;2023-08-24T05:35:25;9.75;9.75;7.50
72854;PMS7003;60991;51.278;22.550;2023-08-24T05:36:55;7.75;7.75;6.00
72854;PMS7003;60991;51.278;22.550;2023-08-24T05:38:26;11.25;9.00;5.25
72854;PMS7003;60991;51.278;22.550;2023-08-24T05:39:56;10.75;9.50;7.00
72854;PMS7003;60991;51.278;22.550;2023-08-24T05:41:26;13.75;13.75;10.25
72854;PMS7003;60991;51.278;22.550;2023-08-24T05:42:56;13.50;12.25;8.25
72854;PMS7003;60991;51.278;22.550;2023-08-24T05:44:26;13.00;11.50;7.75
72854;PMS7003;60991;51.278;22.550;2023-08-24T05:45:56;16.50;13.75;10.00
72854;PMS7003;60991;51.278;22.550;2023-08-24T05:47:27;13.00;11.50;8.00
72854;PMS7003;60991;51.278;22.550;2023-08-24T05:48:57;14.25;14.25;10.25
72854;PMS7003;60991;51.278;22.550;2023-08-24T05:50:28;8.00;7.25;4.00
72854;PMS7003;60991;51.278;22.550;2023-08-24T05:51:58;15.75;15.00;9.00
72854;PMS7003;60991;51.278;22.550;2023-08-24T05:53:29;12.50;12.25;8.75
72854;PMS7003;60991;51.278;22.550;2023-08-24T05:54:59;12.50;11.00;7.25
72854;PMS7003;60991;51.278;22.550;2023-08-24T05:56:29;13.00;10.00;7.75
72854;PMS7003;60991;51.278;22.550;2023-08-24T05:57:59;11.00;10.25;7.50
72854;PMS7003;60991;51.278;22.550;2023-08-24T05:59:30;12.00;11.50;8.75
72854;PMS7003;60991;51.278;22.550;2023-08-24T06:01:03;10.50;10.00;8.00
72854;PMS7003;60991;51.278;22.550;2023-08-24T06:02:33;11.00;10.50;7.50
72854;PMS7003;60991;51.278;22.550;2023-08-24T06:04:07;12.00;12.00;7.00
72854;PMS7003;60991;51.278;22.550;2023-08-24T06:05:38;12.75;11.50;6.75
72854;PMS7003;60991;51.278;22.550;2023-08-24T06:07:08;12.00;12.00;9.00
72854;PMS7003;60991;51.278;22.550;2023-08-24T06:08:38;17.25;11.50;9.00
72854;PMS7003;60991;51.278;22.550;2023-08-24T06:10:09;10.75;10.00;6.75
72854;PMS7003;60991;51.278;22.550;2023-08-24T06:11:39;10.50;10.50;7.00
72854;PMS7003;60991;51.278;22.550;2023-08-24T06:13:10;13.25;12.50;9.00
72854;PMS7003;60991;51.278;22.550;2023-08-24T06:14:40;10.25;9.00;6.00
72854;PMS7003;60991;51.278;22.550;2023-08-24T06:16:10;11.00;11.00;7.75
72854;PMS7003;60991;51.278;22.550;2023-08-24T06:17:40;8.75;8.75;6.75
72854;PMS7003;60991;51.278;22.550;2023-08-24T06:19:11;12.50;10.00;6.50
72854;PMS7003;60991;51.278;22.550;2023-08-24T06:20:41;10.25;10.25;8.25
72854;PMS7003;60991;51.278;22.550;2023-08-24T06:22:11;14.75;11.00;9.00
72854;PMS7003;60991;51.278;22.550;2023-08-24T06:23:41;20.00;13.00;9.25
72854;PMS7003;60991;51.278;22.550;2023-08-24T06:25:12;8.25;7.25;5.00
72854;PMS7003;60991;51.278;22.550;2023-08-24T06:26:42;6.75;6.75;5.75
72854;PMS7003;60991;51.278;22.550;2023-08-24T06:28:13;6.75;6.00;5.00
72854;PMS7003;60991;51.278;22.550;2023-08-24T06:29:43;7.50;6.00;4.75
72854;PMS7003;60991;51.278;22.550;2023-08-24T06:31:14;6.50;6.00;5.00
72854;PMS7003;60991;51.278;22.550;2023-08-24T06:32:44;6.50;4.25;3.50
72854;PMS7003;60991;51.278;22.550;2023-08-24T06:34:14;7.00;7.00;4.75
72854;PMS7003;60991;51.278;22.550;2023-08-24T06:35:44;6.00;6.00;5.00
72854;PMS7003;60991;51.278;22.550;2023-08-24T06:37:14;5.75;5.75;3.75
72854;PMS7003;60991;51.278;22.550;2023-08-24T06:38:45;6.25;6.00;6.00
72854;PMS7003;60991;51.278;22.550;2023-08-24T06:40:15;3.50;3.50;2.50
72854;PMS7003;60991;51.278;22.550;2023-08-24T06:41:45;8.00;6.50;4.75
72854;PMS7003;60991;51.278;22.550;2023-08-24T06:43:15;6.00;5.00;3.00
72854;PMS7003;60991;51.278;22.550;2023-08-24T06:44:46;8.50;8.25;5.00
72854;PMS7003;60991;51.278;22.550;2023-08-24T06:46:17;8.25;6.75;5.00
72854;PMS7003;60991;51.278;22.550;2023-08-24T06:47:47;7.00;6.00;5.25
72854;PMS7003;60991;51.278;22.550;2023-08-24T06:49:18;9.75;9.75;6.00
72854;PMS7003;60991;51.278;22.550;2023-08-24T06:50:48;8.50;8.50;5.75
72854;PMS7003;60991;51.278;22.550;2023-08-24T06:52:18;7.00;6.00;5.00
72854;PMS7003;60991;51.278;22.550;2023-08-24T06:53:48;6.50;6.00;4.50
72854;PMS7003;60991;51.278;22.550;2023-08-24T06:55:19;7.00;6.00;4.50
72854;PMS7003;60991;51.278;22.550;2023-08-24T06:56:49;7.75;7.50;5.50
72854;PMS7003;60991;51.278;22.550;2023-08-24T06:58:19;4.25;4.25;3.75
72854;PMS7003;60991;51.278;22.550;2023-08-24T06:59:49;5.25;3.75;2.00
72854;PMS7003;60991;51.278;22.550;2023-08-24T07:01:20;7.00;5.00;4.75
72854;PMS7003;60991;51.278;22.550;2023-08-24T07:02:50;5.00;5.00;5.00
72854;PMS7003;60991;51.278;22.550;2023-08-24T07:04:20;4.00;4.00;3.75
72854;PMS7003;60991;51.278;22.550;2023-08-24T07:05:50;4.75;4.00;3.00
72854;PMS7003;60991;51.278;22.550;2023-08-24T07:07:21;3.00;3.00;3.00
72854;PMS7003;60991;51.278;22.550;2023-08-24T07:08:51;6.00;3.25;2.50
72854;PMS7003;60991;51.278;22.550;2023-08-24T07:10:21;4.00;4.00;3.50
72854;PMS7003;60991;51.278;22.550;2023-08-24T07:11:51;3.00;3.00;2.00
72854;PMS7003;60991;51.278;22.550;2023-08-24T07:13:21;3.50;3.50;2.25
72854;PMS7003;60991;51.278;22.550;2023-08-24T07:14:52;3.75;3.75;3.00
72854;PMS7003;60991;51.278;22.550;2023-08-24T07:16:22;3.00;3.00;2.00
72854;PMS7003;60991;51.278;22.550;2023-08-24T07:17:52;2.75;2.00;2.00
72854;PMS7003;60991;51.278;22.550;2023-08-24T07:19:22;5.25;4.00;3.50
72854;PMS7003;60991;51.278;22.550;2023-08-24T07:20:52;3.00;3.00;2.25
72854;PMS7003;60991;51.278;22.550;2023-08-24T07:22:24;3.75;3.00;2.25
72854;PMS7003;60991;51.278;22.550;2023-08-24T07:23:54;4.00;4.00;3.00
72854;PMS7003;60991;51.278;22.550;2023-08-24T07:25:24;6.00;3.75;3.00
72854;PMS7003;60991;51.278;22.550;2023-08-24T07:26:55;2.75;2.75;2.00
72854;PMS7003;60991;51.278;22.550;2023-08-24T07:28:25;3.00;3.00;2.25
72854;PMS7003;60991;51.278;22.550;2023-08-24T07:29:55;3.00;3.00;2.25
72854;PMS7003;60991;51.278;22.550;2023-08-24T07:31:25;4.00;3.50;2.50
72854;PMS7003;60991;51.278;22.550;2023-08-24T07:32:56;3.00;3.00;2.00
72854;PMS7003;60991;51.278;22.550;2023-08-24T07:34:26;4.00;2.00;2.00
72854;PMS7003;60991;51.278;22.550;2023-08-24T07:35:56;5.50;4.00;2.00
72854;PMS7003;60991;51.278;22.550;2023-08-24T07:37:27;2.00;2.00;1.00
72854;PMS7003;60991;51.278;22.550;2023-08-24T07:38:57;3.75;3.50;3.50
72854;PMS7003;60991;51.278;22.550;2023-08-24T07:40:27;5.00;2.75;2.00
72854;PMS7003;60991;51.278;22.550;2023-08-24T07:41:57;2.50;2.50;2.50
72854;PMS7003;60991;51.278;22.550;2023-08-24T07:43:28;4.50;4.00;2.00
72854;PMS7003;60991;51.278;22.550;2023-08-24T07:44:58;4.75;4.75;3.50
72854;PMS7003;60991;51.278;22.550;2023-08-24T07:46:28;5.00;5.00;4.00
72854;PMS7003;60991;51.278;22.550;2023-08-24T07:47:58;2.00;2.00;1.25
72854;PMS7003;60991;51.278;22.550;2023-08-24T07:49:28;3.75;2.75;2.00
72854;PMS7003;60991;51.278;22.550;2023-08-24T07:50:59;6.00;4.00;3.00
72854;PMS7003;60991;51.278;22.550;2023-08-24T07:52:29;4.00;4.00;3.00
72854;PMS7003;60991;51.278;22.550;2023-08-24T07:53:59;3.00;2.00;1.00
72854;PMS7003;60991;51.278;22.550;2023-08-24T07:55:30;2.00;2.00;1.00
72854;PMS7003;60991;51.278;22.550;2023-08-24T07:57:00;2.00;2.00;1.75
72854;PMS7003;60991;51.278;22.550;2023-08-24T07:58:30;5.50;3.00;2.00
72854;PMS7003;60991;51.278;22.550;2023-08-24T08:00:00;2.50;2.25;2.00
72854;PMS7003;60991;51.278;22.550;2023-08-24T08:01:31;1.50;1.50;1.00
72854;PMS7003;60991;51.278;22.550;2023-08-24T08:03:01;2.75;2.75;2.00
72854;PMS7003;60991;51.278;22.550;2023-08-24T08:04:31;2.75;2.00;1.75
72854;PMS7003;60991;51.278;22.550;2023-08-24T08:06:01;2.00;2.00;1.25
72854;PMS7003;60991;51.278;22.550;2023-08-24T08:07:32;3.00;0.00;0.00
72854;PMS7003;60991;51.278;22.550;2023-08-24T08:09:02;2.00;2.00;2.00
72854;PMS7003;60991;51.278;22.550;2023-08-24T08:10:32;2.00;2.00;2.00
72854;PMS7003;60991;51.278;22.550;2023-08-24T08:12:03;2.50;2.50;1.25
72854;PMS7003;60991;51.278;22.550;2023-08-24T08:13:33;2.00;2.00;1.00
72854;PMS7003;60991;51.278;22.550;2023-08-24T08:15:04;4.00;4.00;2.00
72854;PMS7003;60991;51.278;22.550;2023-08-24T08:16:34;4.00;4.00;3.00
72854;PMS7003;60991;51.278;22.550;2023-08-24T08:18:05;2.25;2.25;2.00
72854;PMS7003;60991;51.278;22.550;2023-08-24T08:19:35;4.00;2.75;2.00
72854;PMS7003;60991;51.278;22.550;2023-08-24T08:21:09;3.50;3.50;2.75
72854;PMS7003;60991;51.278;22.550;2023-08-24T08:22:40;1.00;1.00;1.00
72854;PMS7003;60991;51.278;22.550;2023-08-24T08:24:10;2.00;2.00;2.00
72854;PMS7003;60991;51.278;22.550;2023-08-24T08:25:40;3.00;3.00;2.25
72854;PMS7003;60991;51.278;22.550;2023-08-24T08:27:10;2.50;2.50;2.00
72854;PMS7003;60991;51.278;22.550;2023-08-24T08:28:40;1.25;1.25;1.00
72854;PMS7003;60991;51.278;22.550;2023-08-24T08:30:11;2.75;2.50;2.00
72854;PMS7003;60991;51.278;22.550;2023-08-24T08:31:42;3.25;2.00;1.25
72854;PMS7003;60991;51.278;22.550;2023-08-24T08:33:12;1.75;1.75;1.00
72854;PMS7003;60991;51.278;22.550;2023-08-24T08:34:42;2.00;2.00;2.00
72854;PMS7003;60991;51.278;22.550;2023-08-24T08:36:12;2.00;2.00;1.50